Norman Manley International Airport
MKJP : now visible

Airfield :











YOU CAN JOIN US ON...

 
LOGIN :

Register | Disclaimer

   EN    FR    IT 

 









Legend :    VFR   Marginal VFR   IFR   Intensive IFR   Very Intensive IFR
Visi :
Ceiling :
>= 8 km
>= 3000ft
5 to 8 km
1000 to 3000 ft
1500m to 5 km
500 to 1000 ft
800 to 1500m
200 to 500 ft
< 800m
< 200 ft
Symbols :   Thunderstorms  Fog  Heavy snow  Heavy precipitations  Wind > 20 kt






- Airport Elevation : 10 ft
- IATA code : KIN


MKJP - Norman Manley International

CURRENT METAR :
  • 141900Z 16024KT 9999 FEW022CB 32/25 Q1011

EXPIRED METARs :
  • 141800Z 16022KT 9999 FEW022 32/25 Q1011
  • 141700Z 15022KT 9999 FEW022 32/25 Q1011

TAF TAF MKJP
Valid from the 14 at 18:00 until the 15 at 18:00 UTC


141715Z 1418/1518 14023KT 9999 FEW022
BECMG 1500/1502 11013KT
BECMG 1503/1505 35006KT
BECMG 1514/1516 14015KT
MKJK FIR / North America



MET'MAP, your aeronautical weather chart ! - Copyright ORBIFLY December 2007 - Disclaimer

ORBIFLY MET'MAP TEAM :

Programming & Development : Alexandra Zaïnal
Concept & original design : Baudouin d'Aumeries
Assistance for programming : Marc-Olivier Méhu
Technical & hardware support : Manuel Goepfert

Contact : metmap@orbifly.com




SOURCES & CREDITS :

   NOAA       Earth
Advisory